createdAt,value
2022-12-25T00:00:36.441Z,6.07
2022-12-25T00:03:02.751Z,6.07
2022-12-25T00:05:28.953Z,6.04
2022-12-25T00:07:55.098Z,5.98
2022-12-25T00:10:21.202Z,5.91
2022-12-25T00:12:47.375Z,5.88
2022-12-25T00:15:13.515Z,5.81
2022-12-25T00:17:39.729Z,5.67
2022-12-25T00:20:06.458Z,5.57
2022-12-25T00:22:32.648Z,5.38
2022-12-25T00:24:58.759Z,5.24
2022-12-25T00:27:24.881Z,5.10
2022-12-25T00:29:50.996Z,4.95
2022-12-25T00:32:17.120Z,4.84
2022-12-25T00:34:43.241Z,4.66
2022-12-25T00:37:09.358Z,4.52
2022-12-25T00:39:35.485Z,4.42
2022-12-25T00:42:19.765Z,4.29
2022-12-25T00:44:47.123Z,4.14
2022-12-25T00:47:13.316Z,4.02
2022-12-25T00:49:39.473Z,3.94
2022-12-25T00:52:05.898Z,3.84
2022-12-25T00:54:32.019Z,3.74
2022-12-25T00:56:58.292Z,3.65
2022-12-25T00:59:24.540Z,3.55
2022-12-25T01:01:51.044Z,3.49
2022-12-25T01:04:17.290Z,3.43
2022-12-25T01:06:43.450Z,3.32
2022-12-25T01:09:28.264Z,3.30
2022-12-25T01:11:54.391Z,3.24
2022-12-25T01:14:20.514Z,3.21
2022-12-25T01:16:46.690Z,3.26
2022-12-25T01:19:13.113Z,3.28
2022-12-25T01:21:39.327Z,3.30
2022-12-25T01:24:05.791Z,3.35
2022-12-25T01:26:31.921Z,3.39
2022-12-25T01:28:58.024Z,3.45
2022-12-25T01:31:24.858Z,3.50
2022-12-25T01:33:51.588Z,3.58
2022-12-25T01:36:22.803Z,3.61
2022-12-25T01:38:49.641Z,3.68
2022-12-25T01:41:17.986Z,3.73
2022-12-25T01:43:59.340Z,3.78
2022-12-25T01:46:25.548Z,3.77
2022-12-25T01:48:53.360Z,3.75
2022-12-25T01:51:28.546Z,3.71
2022-12-25T01:53:57.880Z,3.71
2022-12-25T01:56:26.455Z,3.71
2022-12-25T01:58:54.338Z,3.65
2022-12-25T02:01:20.622Z,3.67
2022-12-25T02:03:46.820Z,3.66
2022-12-25T02:06:12.941Z,3.72
2022-12-25T02:08:40.404Z,3.71
2022-12-25T02:11:28.785Z,3.72
2022-12-25T02:13:55.294Z,3.68
2022-12-25T02:16:31.236Z,3.68
2022-12-25T02:19:09.895Z,3.73
2022-12-25T02:21:55.595Z,3.78
2022-12-25T02:24:43.245Z,3.74
2022-12-25T02:27:37.180Z,3.74
2022-12-25T02:30:06.816Z,3.73
2022-12-25T02:32:42.843Z,3.67
2022-12-25T02:35:18.356Z,3.61
2022-12-25T02:37:51.917Z,3.63
2022-12-25T02:40:28.699Z,3.61
2022-12-25T02:43:31.710Z,3.69
2022-12-25T02:46:24.521Z,3.80
2022-12-25T02:49:16.495Z,3.82
2022-12-25T02:52:06.374Z,3.81
2022-12-25T02:54:59.309Z,3.79
2022-12-25T02:57:48.623Z,3.87
2022-12-25T03:00:33.901Z,3.99
2022-12-25T03:03:23.359Z,3.96
2022-12-25T03:06:10.480Z,3.99
2022-12-25T03:08:41.863Z,3.98
2022-12-25T03:11:29.011Z,3.96
2022-12-25T03:14:18.831Z,3.94
2022-12-25T03:16:53.714Z,3.95
2022-12-25T03:19:47.626Z,3.95
2022-12-25T03:22:37.863Z,3.92
2022-12-25T03:25:22.724Z,3.95
2022-12-25T03:27:52.642Z,3.95
2022-12-25T03:30:37.824Z,3.95
2022-12-25T03:33:43.182Z,3.92
2022-12-25T03:36:06.387Z,3.86
2022-12-25T03:38:50.746Z,3.84
2022-12-25T03:41:44.752Z,3.75
2022-12-25T03:44:43.950Z,3.78
2022-12-25T03:47:41.317Z,3.79
2022-12-25T03:50:37.979Z,3.74
2022-12-25T03:53:37.455Z,3.71
2022-12-25T03:56:23.436Z,3.69
2022-12-25T03:59:16.505Z,3.67
2022-12-25T04:02:04.107Z,3.68
2022-12-25T04:04:49.015Z,3.65
2022-12-25T04:07:33.783Z,3.70
2022-12-25T04:10:18.733Z,3.68
2022-12-25T04:13:03.271Z,3.67
2022-12-25T04:15:48.191Z,3.66
2022-12-25T04:18:33.291Z,3.65
2022-12-25T04:21:17.754Z,3.62
2022-12-25T04:24:02.714Z,3.59
2022-12-25T04:26:47.454Z,3.58
2022-12-25T04:29:32.249Z,3.54
2022-12-25T04:32:16.760Z,3.53
2022-12-25T04:35:01.569Z,3.52
2022-12-25T04:37:27.706Z,3.50
2022-12-25T04:39:53.844Z,3.46
2022-12-25T04:42:19.984Z,3.44
2022-12-25T04:44:46.118Z,3.32
2022-12-25T04:47:12.965Z,3.26
2022-12-25T04:49:39.413Z,3.26
2022-12-25T04:52:05.570Z,3.28
2022-12-25T04:54:31.776Z,3.29
2022-12-25T04:56:57.927Z,3.27
2022-12-25T04:59:24.107Z,3.24
2022-12-25T05:01:50.348Z,3.17
2022-12-25T07:59:19.728Z,1.97
2022-12-25T08:01:46.488Z,2.06
2022-12-25T08:04:12.870Z,2.19
2022-12-25T08:06:39.007Z,2.28
2022-12-25T08:09:08.302Z,2.37
2022-12-25T08:11:34.437Z,2.44
2022-12-25T08:14:00.812Z,2.51
2022-12-25T08:16:26.963Z,2.58
2022-12-25T08:18:53.470Z,2.59
2022-12-25T08:21:19.602Z,2.53
2022-12-25T08:23:47.410Z,2.52
2022-12-25T08:26:16.500Z,2.54
2022-12-25T08:28:43.018Z,2.65
2022-12-25T08:31:21.553Z,2.72
2022-12-25T08:33:49.039Z,2.83
2022-12-25T08:36:15.915Z,2.91
2022-12-25T08:38:42.171Z,2.92
2022-12-25T08:41:09.126Z,2.95
2022-12-25T08:43:35.316Z,2.89
2022-12-25T08:46:01.567Z,2.96
2022-12-25T08:48:28.094Z,3.00
2022-12-25T08:50:54.784Z,3.02
2022-12-25T08:53:21.908Z,3.02
2022-12-25T08:55:48.110Z,3.06
2022-12-25T08:58:17.069Z,3.03
2022-12-25T09:00:43.492Z,3.00
2022-12-25T09:03:09.684Z,2.86
2022-12-25T09:05:36.916Z,2.74
2022-12-25T09:08:03.404Z,2.76
2022-12-25T09:10:30.055Z,2.88
2022-12-25T09:12:56.242Z,2.94
2022-12-25T09:15:22.401Z,2.96
2022-12-25T09:17:48.523Z,2.93
2022-12-25T09:20:14.750Z,2.87
2022-12-25T09:22:40.999Z,2.73
2022-12-25T09:25:07.344Z,2.60
2022-12-25T09:27:33.468Z,2.62
2022-12-25T09:29:59.595Z,2.56
2022-12-25T09:32:25.802Z,2.54
2022-12-25T09:34:51.957Z,2.46
2022-12-25T09:37:18.097Z,2.41
2022-12-25T09:39:46.478Z,2.51
2022-12-25T09:42:21.531Z,2.54
2022-12-25T09:44:51.603Z,2.73
2022-12-25T09:47:21.890Z,2.82
2022-12-25T09:49:57.630Z,2.91
2022-12-25T09:52:30.398Z,3.02
2022-12-25T09:55:19.598Z,3.23
2022-12-25T09:57:54.184Z,3.16
2022-12-25T10:00:22.636Z,3.24
2022-12-25T10:03:13.163Z,3.43
2022-12-25T10:06:11.007Z,3.66
2022-12-25T10:09:07.974Z,3.82
2022-12-25T10:12:00.379Z,3.74
2022-12-25T10:14:45.236Z,3.84
2022-12-25T10:17:24.703Z,4.00
2022-12-25T10:20:14.495Z,4.15
2022-12-25T10:22:54.345Z,4.36
2022-12-25T10:25:24.158Z,4.54
2022-12-25T10:28:11.787Z,4.63
2022-12-25T10:30:40.028Z,4.66
2022-12-25T10:33:06.130Z,4.78
2022-12-25T10:35:32.988Z,4.83
2022-12-25T10:38:02.793Z,4.81
2022-12-25T10:40:46.003Z,4.93
2022-12-25T10:43:18.327Z,4.98
2022-12-25T10:45:49.528Z,5.05
2022-12-25T10:48:22.731Z,4.81
2022-12-25T10:50:49.573Z,4.72
2022-12-25T10:53:25.617Z,4.49
2022-12-25T10:56:03.409Z,4.61
2022-12-25T10:58:30.451Z,4.74
2022-12-25T11:01:06.793Z,4.81
2022-12-25T11:03:35.310Z,4.95
2022-12-25T11:06:03.003Z,4.99
2022-12-25T11:08:33.126Z,5.01
2022-12-25T11:11:06.600Z,4.85
2022-12-25T11:13:36.203Z,4.64
2022-12-25T11:16:05.418Z,4.63
2022-12-25T11:18:47.810Z,4.61
2022-12-25T11:21:26.451Z,4.67
2022-12-25T11:24:03.664Z,4.86
2022-12-25T11:26:35.423Z,5.08
2022-12-25T11:29:01.921Z,5.29
2022-12-25T11:31:37.288Z,5.48
2022-12-25T11:34:06.283Z,5.59
2022-12-25T11:36:47.132Z,5.52
2022-12-25T11:39:42.598Z,5.40
2022-12-25T11:42:22.661Z,5.20
2022-12-25T11:45:10.341Z,5.12
2022-12-25T11:47:48.837Z,5.26
2022-12-25T11:50:54.581Z,5.28
2022-12-25T11:53:30.566Z,5.21
2022-12-25T11:56:02.594Z,5.24
2022-12-25T11:58:33.573Z,5.20
2022-12-25T12:01:04.983Z,5.36
2022-12-25T12:03:40.493Z,5.43
2022-12-25T12:06:29.996Z,5.60
2022-12-25T12:09:12.139Z,5.70
2022-12-25T12:11:46.680Z,5.36
2022-12-25T12:14:45.468Z,5.14
2022-12-25T12:17:13.518Z,5.18
2022-12-25T12:19:39.635Z,5.23
2022-12-25T12:22:06.053Z,5.22
2022-12-25T12:24:42.067Z,5.24
2022-12-25T12:27:27.906Z,5.48
2022-12-25T12:29:55.723Z,5.66
2022-12-25T12:32:34.018Z,5.62
2022-12-25T12:35:05.708Z,5.56
2022-12-25T12:37:35.733Z,5.58
2022-12-25T12:40:02.823Z,5.70
2022-12-25T12:42:34.802Z,5.71
2022-12-25T12:45:11.051Z,5.43
2022-12-25T12:47:38.922Z,5.24
2022-12-25T12:50:05.993Z,5.25
2022-12-25T12:52:35.869Z,5.29
2022-12-25T12:55:08.309Z,5.28
2022-12-25T12:57:39.686Z,5.17
2022-12-25T13:00:11.058Z,5.07
2022-12-25T13:02:50.125Z,5.06
2022-12-25T13:05:33.982Z,5.05
2022-12-25T13:08:31.450Z,4.95
2022-12-25T13:11:21.203Z,4.90
2022-12-25T13:13:49.706Z,4.85
2022-12-25T13:16:26.721Z,4.80
2022-12-25T13:18:54.178Z,4.78
2022-12-25T13:21:29.113Z,4.80
2022-12-25T13:24:01.344Z,4.79
2022-12-25T13:26:28.795Z,4.84
2022-12-25T13:28:56.222Z,4.93
2022-12-25T13:31:25.363Z,5.00
2022-12-25T13:33:55.382Z,4.97
2022-12-25T13:36:21.606Z,4.98
2022-12-25T13:38:50.930Z,4.98
2022-12-25T13:41:41.845Z,4.86
2022-12-25T13:44:20.553Z,4.77
2022-12-25T13:46:47.191Z,4.78
2022-12-25T13:49:18.728Z,4.74
2022-12-25T13:51:46.318Z,4.70
2022-12-25T13:54:14.750Z,4.62
2022-12-25T13:56:55.312Z,4.63
2022-12-25T13:59:24.658Z,4.62
2022-12-25T14:01:52.297Z,4.66
2022-12-25T14:04:24.501Z,4.56
2022-12-25T14:06:52.408Z,4.54
2022-12-25T14:09:19.578Z,4.62
2022-12-25T14:11:51.503Z,4.67
2022-12-25T14:14:25.747Z,4.67
2022-12-25T14:16:56.471Z,4.64
2022-12-25T14:19:29.080Z,4.69
2022-12-25T14:22:01.724Z,4.68
2022-12-25T14:24:30.128Z,4.73
2022-12-25T14:27:02.012Z,4.74
2022-12-25T14:29:43.177Z,4.71
2022-12-25T14:32:16.141Z,4.69
2022-12-25T14:34:43.982Z,4.64
2022-12-25T14:37:16.215Z,4.63
2022-12-25T14:39:47.158Z,4.65
2022-12-25T14:42:22.390Z,4.61
2022-12-25T14:44:58.693Z,4.57
2022-12-25T14:47:25.475Z,4.54
2022-12-25T14:49:53.753Z,4.45
2022-12-25T14:52:25.442Z,4.34
2022-12-25T14:54:59.481Z,4.31
2022-12-25T14:57:29.512Z,4.29
2022-12-25T15:00:07.684Z,4.20
2022-12-25T15:02:40.607Z,4.21
2022-12-25T15:05:25.036Z,4.23
2022-12-25T15:08:17.916Z,4.22
2022-12-25T15:10:59.605Z,4.13
2022-12-25T15:13:27.912Z,4.10
2022-12-25T15:16:06.432Z,4.04
2022-12-25T15:18:38.235Z,3.97
2022-12-25T15:21:04.489Z,3.97
2022-12-25T15:23:30.635Z,3.94
2022-12-25T15:25:56.769Z,3.99
2022-12-25T15:28:23.002Z,3.92
2022-12-25T15:30:49.969Z,3.90
2022-12-25T15:33:18.537Z,3.88
2022-12-25T15:35:45.700Z,3.87
2022-12-25T15:38:13.253Z,3.90
2022-12-25T15:40:40.679Z,3.92
2022-12-25T15:43:14.480Z,3.89
2022-12-25T15:45:53.976Z,3.92
2022-12-25T15:48:20.141Z,3.92
2022-12-25T15:50:46.869Z,3.91
2022-12-25T15:53:13.066Z,3.91
2022-12-25T15:55:39.382Z,3.91
2022-12-25T15:58:05.504Z,3.90
2022-12-25T16:00:31.706Z,3.94
2022-12-25T16:02:58.075Z,3.91
2022-12-25T16:05:24.375Z,3.97
2022-12-25T16:07:50.565Z,3.95
2022-12-25T16:10:19.462Z,3.97
2022-12-25T16:12:46.073Z,4.04
2022-12-25T16:15:13.753Z,4.05
2022-12-25T16:17:39.883Z,4.04
2022-12-25T16:20:06.909Z,4.08
2022-12-25T16:22:39.708Z,4.12
2022-12-25T16:25:12.515Z,4.04
2022-12-25T16:27:38.643Z,4.08
2022-12-25T16:30:05.309Z,4.11
2022-12-25T16:32:31.479Z,4.14
2022-12-25T16:34:57.591Z,4.15
2022-12-25T16:37:24.019Z,4.19
2022-12-25T16:39:50.126Z,4.20
2022-12-25T16:42:16.285Z,4.20
2022-12-25T16:44:42.417Z,4.20
2022-12-25T16:47:08.560Z,4.22
2022-12-25T16:49:35.245Z,4.24
2022-12-25T16:52:01.365Z,4.29
2022-12-25T16:54:27.501Z,4.31
2022-12-25T16:56:53.629Z,4.35
2022-12-25T16:59:19.749Z,4.41
2022-12-25T17:01:45.989Z,4.43
2022-12-25T17:04:12.263Z,4.39
2022-12-25T17:06:38.557Z,4.34
2022-12-25T17:09:05.110Z,4.35
2022-12-25T17:11:32.013Z,4.37
2022-12-25T17:14:02.152Z,4.33
2022-12-25T17:16:31.088Z,4.34
2022-12-25T17:19:01.496Z,4.34
2022-12-25T17:21:28.786Z,4.36
2022-12-25T17:24:01.666Z,4.40
2022-12-25T17:26:30.035Z,4.42
2022-12-25T17:28:56.468Z,4.41
2022-12-25T17:31:23.277Z,4.41
2022-12-25T17:33:49.520Z,4.46
2022-12-25T17:36:18.383Z,4.52
2022-12-25T17:38:44.920Z,4.57
2022-12-25T17:41:13.436Z,4.63
2022-12-25T17:43:42.145Z,4.63
2022-12-25T17:46:11.903Z,4.65
2022-12-25T17:48:38.384Z,4.65
2022-12-25T17:51:06.488Z,4.74
2022-12-25T17:53:35.174Z,4.78
2022-12-25T17:56:01.287Z,4.81
2022-12-25T17:58:27.720Z,4.86
2022-12-25T18:00:54.689Z,4.92
2022-12-25T18:03:21.641Z,4.98
2022-12-25T18:05:48.516Z,5.03
2022-12-25T18:08:15.181Z,5.07
2022-12-25T18:10:43.450Z,5.14
2022-12-25T18:13:11.534Z,5.23
2022-12-25T18:15:41.228Z,5.29
2022-12-25T18:18:08.348Z,5.34
2022-12-25T18:20:39.959Z,5.38
2022-12-25T18:23:06.468Z,5.43
2022-12-25T18:25:33.822Z,5.47
2022-12-25T18:28:02.721Z,5.49
2022-12-25T18:30:29.092Z,5.52
2022-12-25T18:32:55.446Z,5.53
2022-12-25T18:35:21.626Z,5.57
2022-12-25T18:37:48.249Z,5.62
2022-12-25T18:40:14.427Z,5.65
2022-12-25T18:42:40.571Z,5.68
2022-12-25T18:45:14.929Z,5.72
2022-12-25T18:47:41.252Z,5.75
2022-12-25T18:50:08.753Z,5.81
2022-12-25T18:52:49.554Z,5.84
2022-12-25T18:55:17.423Z,5.89
2022-12-25T18:57:43.588Z,5.91
2022-12-25T19:00:10.138Z,5.95
2022-12-25T19:02:36.381Z,5.99
2022-12-25T19:05:02.530Z,6.04
2022-12-25T19:07:28.709Z,6.13
2022-12-25T19:09:54.836Z,6.15
2022-12-25T19:12:20.987Z,6.15
2022-12-25T19:14:48.379Z,6.13
2022-12-25T19:17:15.182Z,6.09
2022-12-25T19:19:41.306Z,6.06
2022-12-25T19:22:07.669Z,6.09
2022-12-25T19:24:34.372Z,6.15
2022-12-25T19:27:00.500Z,6.16
2022-12-25T19:29:26.622Z,6.23
2022-12-25T19:31:53.328Z,6.25
2022-12-25T19:34:20.358Z,6.24
2022-12-25T19:36:46.483Z,6.27
2022-12-25T19:39:13.211Z,6.29
2022-12-25T19:41:39.761Z,6.31
2022-12-25T19:44:06.406Z,6.30
2022-12-25T19:46:35.936Z,6.32
2022-12-25T19:49:04.567Z,6.34
2022-12-25T19:51:33.421Z,6.35
2022-12-25T19:54:00.407Z,6.37
2022-12-25T19:56:27.859Z,6.44
2022-12-25T19:58:54.741Z,6.46
2022-12-25T20:01:22.968Z,6.54
2022-12-25T20:03:49.665Z,6.57
2022-12-25T20:06:20.084Z,6.58
2022-12-25T20:08:47.333Z,6.60
2022-12-25T20:11:13.581Z,6.63
2022-12-25T20:13:39.710Z,6.50
2022-12-25T20:16:08.978Z,6.61
2022-12-25T20:18:35.157Z,6.73
2022-12-25T20:21:07.039Z,6.74
2022-12-25T20:23:33.642Z,6.70
2022-12-25T20:26:01.265Z,6.67
2022-12-25T20:28:32.162Z,6.58
2022-12-25T20:30:58.283Z,6.61
2022-12-25T20:33:25.121Z,6.71
2022-12-25T20:35:51.426Z,6.73
2022-12-25T20:38:18.029Z,6.75
2022-12-25T20:41:24.459Z,6.74
2022-12-25T20:43:31.157Z,6.78
2022-12-25T20:45:57.353Z,6.85
2022-12-25T20:48:23.831Z,6.85
2022-12-25T20:50:50.378Z,6.87
2022-12-25T20:53:17.436Z,6.90
2022-12-25T20:55:48.500Z,6.93
2022-12-25T20:58:16.699Z,6.99
2022-12-25T21:00:44.494Z,6.98
2022-12-25T21:03:11.523Z,7.01
2022-12-25T21:05:49.815Z,7.01
2022-12-25T21:08:18.080Z,7.11
2022-12-25T21:10:46.270Z,7.14
2022-12-25T21:13:12.421Z,7.13
2022-12-25T21:15:44.011Z,7.20
2022-12-25T21:18:10.816Z,7.21
2022-12-25T21:20:37.016Z,7.22
2022-12-25T21:23:03.146Z,7.19
2022-12-25T21:25:29.268Z,7.20
2022-12-25T21:27:55.412Z,7.26
2022-12-25T21:30:21.576Z,7.33
2022-12-25T21:33:06.184Z,7.31
2022-12-25T21:35:36.159Z,7.29
2022-12-25T21:38:02.311Z,7.35
2022-12-25T21:40:28.427Z,7.34
2022-12-25T21:42:54.564Z,7.33
2022-12-25T21:45:20.685Z,7.42
2022-12-25T21:48:01.643Z,7.42
2022-12-25T21:50:47.767Z,7.42
2022-12-25T21:53:19.987Z,7.43
2022-12-25T21:55:56.966Z,7.45
2022-12-25T21:58:23.421Z,7.43
2022-12-25T22:00:49.629Z,7.44
2022-12-25T22:03:15.818Z,7.45
2022-12-25T22:06:00.730Z,7.48
2022-12-25T22:08:31.542Z,7.46
2022-12-25T22:10:58.621Z,7.50
2022-12-25T22:13:43.385Z,7.49
2022-12-25T22:16:28.380Z,7.50
2022-12-25T22:19:13.431Z,7.53
2022-12-25T22:21:39.607Z,7.56
2022-12-25T22:24:08.186Z,7.54
2022-12-25T22:26:35.120Z,7.56
2022-12-25T22:29:01.681Z,7.55
2022-12-25T22:31:28.084Z,7.57
2022-12-25T22:33:55.371Z,7.66
2022-12-25T22:36:21.718Z,7.67
2022-12-25T22:38:47.851Z,7.68
2022-12-25T22:41:13.964Z,7.67
2022-12-25T22:44:15.225Z,7.69
2022-12-25T22:46:27.242Z,7.70
2022-12-25T22:48:53.436Z,7.74
2022-12-25T22:51:19.556Z,7.71
2022-12-25T22:53:45.691Z,7.69
2022-12-25T22:56:11.809Z,7.72
2022-12-25T22:58:37.944Z,7.74
2022-12-25T23:01:07.996Z,7.75
2022-12-25T23:03:34.230Z,7.75
2022-12-25T23:06:00.447Z,7.75
2022-12-25T23:08:26.577Z,7.81
2022-12-25T23:10:52.721Z,7.82
2022-12-25T23:13:37.706Z,7.84
2022-12-25T23:16:04.733Z,7.84
2022-12-25T23:18:49.351Z,7.86
2022-12-25T23:21:36.120Z,7.95
2022-12-25T23:24:21.626Z,7.98
2022-12-25T23:26:47.818Z,8.01
2022-12-25T23:29:34.216Z,8.04
2022-12-25T23:32:00.362Z,8.01
2022-12-25T23:34:26.588Z,8.02
2022-12-25T23:36:52.705Z,8.03
2022-12-25T23:39:18.871Z,8.04
2022-12-25T23:41:46.664Z,8.03
2022-12-25T23:44:13.862Z,8.09
2022-12-25T23:46:40.819Z,8.09
2022-12-25T23:49:07.771Z,8.10
2022-12-25T23:51:38.664Z,8.10
2022-12-25T23:54:08.227Z,8.11
2022-12-25T23:56:34.392Z,8.14
2022-12-25T23:59:01.944Z,8.16
